KPSK

Details ICAO KPSK
Name NEW RIVER VALLEY
Region United States
Timezone America/New_York (UTC-5.0)
Plans Departing 5
Arriving 11
Stats Elevation 2,105 ft / 642 m (AMSL)
Location 37.137346° -80.678483°
Runways 1
Magnetic Variation 8.197° W
Sunrise 2017-12-12 12:28:36 UTC / 2017-12-12 07:28:36 Local
Sunset 2017-12-12 22:07:22 UTC / 2017-12-12 17:07:22 Local
Advertisement - Login to hide

Runways

ID Width Length Bearing (true) Bearing (mag) Surface Threshold Offset Overrun Length
06 150 ft / 46 m 6,198 ft / 1,889 m 51.99° 60.19° Asphalt 0 ft / 0 m 800 ft / 244 m
24 150 ft / 46 m 6,198 ft / 1,889 m 232.00° 240.20° Asphalt 0 ft / 0 m 0 ft / 0 m

Approach Navaids

Runway Type Ident Frequency Range Bearing (true) Bearing (mag) Slope Elevation
06 Localiser IPSK 110.90 MHz 18 nm / 33 km 52.01° 60.20° - 2,105 ft / 642 m (AMSL)
06 Glidescope IPSK 110.90 MHz 10 nm / 19 km 52.00° 60.19° 3.00° 2,098 ft / 639 m (AMSL)

Map

Weather


0- 5 10 15 20 25 30 35+ Temperature / ° C

Clouds and Precipitation
Forecast for 2017-12-12 18:00 UTC. Updated 43 minutes ago

Ground ~20,000 ft ~40,000 ft Winds

METAR

KPSK 121755Z AUTO 28017G23KT 10SM OVC030 04/M02 A2965 RMK AO2 T00381020 10055 20023

TAF

Not found

Frequencies

Recorded 127.37 MHz AWOS 3
Clearance 121.70 MHz CLNC DEL
Unicom 122.70 MHz CTAF/UNICOM
Approach 126.00 MHz ROANOKE APP/DEP
Warning: Do not use this data for real-world aviation or navigation. No guarantee of current accuracy is given.